Bilzen, Belgium
Current Conditions -  °F | °C
As of 1:55 PM on Monday 20 Oct 2014 (Local Time) from EHBK Reporting Station
Overcast Overcast  
Wind Chill: 15°   Ceiling: 4200
Heat Index: 15°   Visibility: 6mi
Dew Point: 12°   Wind: 10mph
Humidity: 82%   Direction: 240°WSW
Pressure: 30.06"   Gusts: NA
Location:  50.87°N, 5.52°E
Report Text: EHBK 201155Z AUTO 24009KT 210V270 9999 FEW015CB BKN042 OVC04615/12 Q1018 NOSIG
Loading
Personal Weather Stations






























Interactive Weather Map
Tropical Storm Tracking
New forecast layout! Learn more

10-Day Weather Forecast

Advertisements
Track Severe Weather on mobile